sensor_id;sensor_type;location;lat;lon;timestamp;temperature;humidity
21255;DHT22;10785;50.674;17.954;2023-11-21T00:02:11;8.10;99.90
21255;DHT22;10785;50.674;17.954;2023-11-21T00:04:58;8.10;99.90
21255;DHT22;10785;50.674;17.954;2023-11-21T00:10:53;8.10;99.90
21255;DHT22;10785;50.674;17.954;2023-11-21T00:13:37;8.10;99.90
21255;DHT22;10785;50.674;17.954;2023-11-21T00:16:28;8.00;99.90
21255;DHT22;10785;50.674;17.954;2023-11-21T00:19:16;8.00;99.90
21255;DHT22;10785;50.674;17.954;2023-11-21T00:21:58;8.00;99.90
21255;DHT22;10785;50.674;17.954;2023-11-21T00:24:44;8.00;99.90
21255;DHT22;10785;50.674;17.954;2023-11-21T00:30:25;8.00;99.90
21255;DHT22;10785;50.674;17.954;2023-11-21T00:33:14;8.00;99.90
21255;DHT22;10785;50.674;17.954;2023-11-21T00:35:56;8.00;99.90
21255;DHT22;10785;50.674;17.954;2023-11-21T00:38:40;8.00;99.90
21255;DHT22;10785;50.674;17.954;2023-11-21T00:41:30;8.00;99.90
21255;DHT22;10785;50.674;17.954;2023-11-21T00:44:18;8.00;99.90
21255;DHT22;10785;50.674;17.954;2023-11-21T00:47:00;8.00;99.90
21255;DHT22;10785;50.674;17.954;2023-11-21T00:49:44;7.90;99.90
21255;DHT22;10785;50.674;17.954;2023-11-21T00:52:30;8.00;99.90
21255;DHT22;10785;50.674;17.954;2023-11-21T00:55:12;7.90;99.90
21255;DHT22;10785;50.674;17.954;2023-11-21T00:57:52;7.90;99.90
21255;DHT22;10785;50.674;17.954;2023-11-21T01:00:27;7.90;99.90
21255;DHT22;10785;50.674;17.954;2023-11-21T01:03:05;7.90;99.90
21255;DHT22;10785;50.674;17.954;2023-11-21T01:05:56;7.90;99.90
21255;DHT22;10785;50.674;17.954;2023-11-21T01:08:27;7.90;99.90
21255;DHT22;10785;50.674;17.954;2023-11-21T01:11:09;7.90;99.90
21255;DHT22;10785;50.674;17.954;2023-11-21T01:14:00;7.90;99.90
21255;DHT22;10785;50.674;17.954;2023-11-21T01:16:32;7.90;99.90
21255;DHT22;10785;50.674;17.954;2023-11-21T01:19:22;7.90;99.90
21255;DHT22;10785;50.674;17.954;2023-11-21T01:22:08;7.90;99.90
21255;DHT22;10785;50.674;17.954;2023-11-21T01:24:54;7.90;99.90
21255;DHT22;10785;50.674;17.954;2023-11-21T01:27:40;7.90;99.90
21255;DHT22;10785;50.674;17.954;2023-11-21T01:30:38;7.90;99.90
21255;DHT22;10785;50.674;17.954;2023-11-21T01:33:20;7.90;99.90
21255;DHT22;10785;50.674;17.954;2023-11-21T01:36:08;7.90;99.90
21255;DHT22;10785;50.674;17.954;2023-11-21T01:38:48;7.90;99.90
21255;DHT22;10785;50.674;17.954;2023-11-21T01:41:31;7.90;99.90
21255;DHT22;10785;50.674;17.954;2023-11-21T01:44:13;7.90;99.90
21255;DHT22;10785;50.674;17.954;2023-11-21T01:46:48;7.90;99.90
21255;DHT22;10785;50.674;17.954;2023-11-21T01:49:27;7.90;99.90
21255;DHT22;10785;50.674;17.954;2023-11-21T01:52:07;7.90;99.90
21255;DHT22;10785;50.674;17.954;2023-11-21T01:54:42;7.90;99.90
21255;DHT22;10785;50.674;17.954;2023-11-21T01:57:24;7.90;99.90
21255;DHT22;10785;50.674;17.954;2023-11-21T02:00:06;7.90;99.90
21255;DHT22;10785;50.674;17.954;2023-11-21T02:02:52;7.90;99.90
21255;DHT22;10785;50.674;17.954;2023-11-21T02:05:28;7.90;99.90
21255;DHT22;10785;50.674;17.954;2023-11-21T02:08:02;7.90;99.90
21255;DHT22;10785;50.674;17.954;2023-11-21T02:10:44;7.90;99.90
21255;DHT22;10785;50.674;17.954;2023-11-21T02:13:19;7.90;99.90
21255;DHT22;10785;50.674;17.954;2023-11-21T02:16:09;7.90;99.90
21255;DHT22;10785;50.674;17.954;2023-11-21T02:18:55;7.90;99.90
21255;DHT22;10785;50.674;17.954;2023-11-21T02:21:34;7.90;99.90
21255;DHT22;10785;50.674;17.954;2023-11-21T02:24:22;7.90;99.90
21255;DHT22;10785;50.674;17.954;2023-11-21T02:27:02;7.90;99.90
21255;DHT22;10785;50.674;17.954;2023-11-21T02:29:37;7.90;99.90
21255;DHT22;10785;50.674;17.954;2023-11-21T02:32:12;7.90;99.90
21255;DHT22;10785;50.674;17.954;2023-11-21T02:35:00;7.90;99.90
21255;DHT22;10785;50.674;17.954;2023-11-21T02:37:50;7.90;99.90
21255;DHT22;10785;50.674;17.954;2023-11-21T02:40:34;7.90;99.90
21255;DHT22;10785;50.674;17.954;2023-11-21T02:43:18;7.90;99.90
21255;DHT22;10785;50.674;17.954;2023-11-21T02:46:08;7.90;99.90
21255;DHT22;10785;50.674;17.954;2023-11-21T02:48:55;7.90;99.90
21255;DHT22;10785;50.674;17.954;2023-11-21T02:51:46;7.90;99.90
21255;DHT22;10785;50.674;17.954;2023-11-21T02:54:31;7.80;99.90
21255;DHT22;10785;50.674;17.954;2023-11-21T02:57:22;7.80;99.90
21255;DHT22;10785;50.674;17.954;2023-11-21T03:00:02;7.80;99.90
21255;DHT22;10785;50.674;17.954;2023-11-21T03:02:39;7.80;99.90
21255;DHT22;10785;50.674;17.954;2023-11-21T03:05:25;7.80;99.90
21255;DHT22;10785;50.674;17.954;2023-11-21T03:08:25;7.80;99.90
21255;DHT22;10785;50.674;17.954;2023-11-21T03:11:01;7.80;99.90
21255;DHT22;10785;50.674;17.954;2023-11-21T03:13:45;7.80;99.90
21255;DHT22;10785;50.674;17.954;2023-11-21T03:16:29;7.80;99.90
21255;DHT22;10785;50.674;17.954;2023-11-21T03:19:13;7.80;99.90
21255;DHT22;10785;50.674;17.954;2023-11-21T03:21:56;7.80;99.90
21255;DHT22;10785;50.674;17.954;2023-11-21T03:24:34;7.80;99.90
21255;DHT22;10785;50.674;17.954;2023-11-21T03:27:07;7.80;99.90
21255;DHT22;10785;50.674;17.954;2023-11-21T03:29:54;7.80;99.90
21255;DHT22;10785;50.674;17.954;2023-11-21T03:32:35;7.80;99.90
21255;DHT22;10785;50.674;17.954;2023-11-21T03:35:12;7.80;99.90
21255;DHT22;10785;50.674;17.954;2023-11-21T03:37:54;7.80;99.90
21255;DHT22;10785;50.674;17.954;2023-11-21T03:40:26;7.80;99.90
21255;DHT22;10785;50.674;17.954;2023-11-21T03:43:07;7.80;99.90
21255;DHT22;10785;50.674;17.954;2023-11-21T03:45:49;7.80;99.90
21255;DHT22;10785;50.674;17.954;2023-11-21T03:48:32;7.80;99.90
21255;DHT22;10785;50.674;17.954;2023-11-21T03:51:17;7.90;99.90
21255;DHT22;10785;50.674;17.954;2023-11-21T03:53:59;7.90;99.90
21255;DHT22;10785;50.674;17.954;2023-11-21T03:56:40;7.90;99.90
21255;DHT22;10785;50.674;17.954;2023-11-21T03:59:21;7.90;99.90
21255;DHT22;10785;50.674;17.954;2023-11-21T04:02:00;7.90;99.90
21255;DHT22;10785;50.674;17.954;2023-11-21T04:04:38;7.90;99.90
21255;DHT22;10785;50.674;17.954;2023-11-21T04:07:22;7.90;99.90
21255;DHT22;10785;50.674;17.954;2023-11-21T04:10:06;8.00;99.90
21255;DHT22;10785;50.674;17.954;2023-11-21T04:12:50;8.00;99.90
21255;DHT22;10785;50.674;17.954;2023-11-21T04:15:30;8.00;99.90
21255;DHT22;10785;50.674;17.954;2023-11-21T04:18:13;8.00;99.90
21255;DHT22;10785;50.674;17.954;2023-11-21T04:20:51;7.90;99.90
21255;DHT22;10785;50.674;17.954;2023-11-21T04:23:26;8.00;99.90
21255;DHT22;10785;50.674;17.954;2023-11-21T04:26:00;7.90;99.90
21255;DHT22;10785;50.674;17.954;2023-11-21T04:28:37;7.90;99.90
21255;DHT22;10785;50.674;17.954;2023-11-21T04:31:19;7.90;99.90
21255;DHT22;10785;50.674;17.954;2023-11-21T04:34:05;7.90;99.90
21255;DHT22;10785;50.674;17.954;2023-11-21T04:36:54;7.90;99.90
21255;DHT22;10785;50.674;17.954;2023-11-21T04:39:26;7.90;99.90
21255;DHT22;10785;50.674;17.954;2023-11-21T04:42:25;7.90;99.90
21255;DHT22;10785;50.674;17.954;2023-11-21T04:45:03;7.90;99.90
21255;DHT22;10785;50.674;17.954;2023-11-21T04:47:53;7.90;99.90
21255;DHT22;10785;50.674;17.954;2023-11-21T04:50:40;7.90;99.90
21255;DHT22;10785;50.674;17.954;2023-11-21T04:53:29;7.90;99.90
21255;DHT22;10785;50.674;17.954;2023-11-21T04:56:15;7.90;99.90
21255;DHT22;10785;50.674;17.954;2023-11-21T04:59:01;7.90;99.90
21255;DHT22;10785;50.674;17.954;2023-11-21T05:01:30;7.90;99.90
21255;DHT22;10785;50.674;17.954;2023-11-21T05:03:59;7.90;99.90
21255;DHT22;10785;50.674;17.954;2023-11-21T05:06:30;7.90;99.90
21255;DHT22;10785;50.674;17.954;2023-11-21T05:09:00;7.90;99.90
21255;DHT22;10785;50.674;17.954;2023-11-21T05:11:29;7.90;99.90
21255;DHT22;10785;50.674;17.954;2023-11-21T05:13:59;7.90;99.90
21255;DHT22;10785;50.674;17.954;2023-11-21T05:16:32;7.90;99.90
21255;DHT22;10785;50.674;17.954;2023-11-21T05:19:03;7.90;99.90
21255;DHT22;10785;50.674;17.954;2023-11-21T05:21:35;7.90;99.90
21255;DHT22;10785;50.674;17.954;2023-11-21T05:24:05;7.90;99.90
21255;DHT22;10785;50.674;17.954;2023-11-21T05:26:34;7.90;99.90
21255;DHT22;10785;50.674;17.954;2023-11-21T05:29:03;7.90;99.90
21255;DHT22;10785;50.674;17.954;2023-11-21T05:31:33;7.90;99.90
21255;DHT22;10785;50.674;17.954;2023-11-21T05:34:02;7.90;99.90
21255;DHT22;10785;50.674;17.954;2023-11-21T05:36:32;7.90;99.90
21255;DHT22;10785;50.674;17.954;2023-11-21T05:39:03;7.90;99.90
21255;DHT22;10785;50.674;17.954;2023-11-21T05:41:32;7.90;99.90
21255;DHT22;10785;50.674;17.954;2023-11-21T05:44:02;7.90;99.90
21255;DHT22;10785;50.674;17.954;2023-11-21T05:46:31;7.90;99.90
21255;DHT22;10785;50.674;17.954;2023-11-21T05:49:01;7.90;99.90
21255;DHT22;10785;50.674;17.954;2023-11-21T05:51:30;7.80;99.90
21255;DHT22;10785;50.674;17.954;2023-11-21T05:53:59;7.80;99.90
21255;DHT22;10785;50.674;17.954;2023-11-21T05:56:31;7.80;99.90
21255;DHT22;10785;50.674;17.954;2023-11-21T05:59:01;7.80;99.90
21255;DHT22;10785;50.674;17.954;2023-11-21T06:01:34;7.80;99.90
21255;DHT22;10785;50.674;17.954;2023-11-21T06:04:22;7.80;99.90
21255;DHT22;10785;50.674;17.954;2023-11-21T06:06:59;7.80;99.90
21255;DHT22;10785;50.674;17.954;2023-11-21T06:09:48;7.80;99.90
21255;DHT22;10785;50.674;17.954;2023-11-21T06:12:33;7.80;99.90
21255;DHT22;10785;50.674;17.954;2023-11-21T06:15:27;7.80;99.90
21255;DHT22;10785;50.674;17.954;2023-11-21T06:18:06;7.80;99.90
21255;DHT22;10785;50.674;17.954;2023-11-21T06:20:50;7.80;99.90
21255;DHT22;10785;50.674;17.954;2023-11-21T06:23:21;7.80;99.90
21255;DHT22;10785;50.674;17.954;2023-11-21T06:25:50;7.80;99.90
21255;DHT22;10785;50.674;17.954;2023-11-21T06:28:22;7.80;99.90
21255;DHT22;10785;50.674;17.954;2023-11-21T06:30:51;7.80;99.90
21255;DHT22;10785;50.674;17.954;2023-11-21T06:33:22;7.80;99.90
21255;DHT22;10785;50.674;17.954;2023-11-21T06:35:59;7.80;99.90
21255;DHT22;10785;50.674;17.954;2023-11-21T06:38:34;7.80;99.90
21255;DHT22;10785;50.674;17.954;2023-11-21T06:41:16;7.90;99.90
21255;DHT22;10785;50.674;17.954;2023-11-21T06:44:03;7.90;99.90
21255;DHT22;10785;50.674;17.954;2023-11-21T06:46:46;7.90;99.90
21255;DHT22;10785;50.674;17.954;2023-11-21T06:49:34;7.90;99.90
21255;DHT22;10785;50.674;17.954;2023-11-21T06:52:16;7.90;99.90
21255;DHT22;10785;50.674;17.954;2023-11-21T06:55:04;7.90;99.90
21255;DHT22;10785;50.674;17.954;2023-11-21T06:57:52;8.00;99.90
21255;DHT22;10785;50.674;17.954;2023-11-21T07:00:40;8.00;99.90
21255;DHT22;10785;50.674;17.954;2023-11-21T07:03:22;8.00;99.90
21255;DHT22;10785;50.674;17.954;2023-11-21T07:06:08;8.00;99.90
21255;DHT22;10785;50.674;17.954;2023-11-21T07:08:54;8.00;99.90
21255;DHT22;10785;50.674;17.954;2023-11-21T07:11:34;8.00;99.90
21255;DHT22;10785;50.674;17.954;2023-11-21T07:14:16;8.00;99.90
21255;DHT22;10785;50.674;17.954;2023-11-21T07:17:02;8.10;99.90
21255;DHT22;10785;50.674;17.954;2023-11-21T07:19:51;8.10;99.90
21255;DHT22;10785;50.674;17.954;2023-11-21T07:22:40;8.00;99.90
21255;DHT22;10785;50.674;17.954;2023-11-21T07:25:28;8.10;99.90
21255;DHT22;10785;50.674;17.954;2023-11-21T07:28:13;8.00;99.90
21255;DHT22;10785;50.674;17.954;2023-11-21T07:31:04;8.10;99.90
21255;DHT22;10785;50.674;17.954;2023-11-21T07:33:58;8.10;99.90
21255;DHT22;10785;50.674;17.954;2023-11-21T07:36:40;8.10;99.90
21255;DHT22;10785;50.674;17.954;2023-11-21T07:39:24;8.10;99.90
21255;DHT22;10785;50.674;17.954;2023-11-21T07:42:00;8.10;99.90
21255;DHT22;10785;50.674;17.954;2023-11-21T07:44:44;8.10;99.90
21255;DHT22;10785;50.674;17.954;2023-11-21T07:47:27;8.10;99.90
21255;DHT22;10785;50.674;17.954;2023-11-21T07:50:20;8.10;99.90
21255;DHT22;10785;50.674;17.954;2023-11-21T07:53:03;8.10;99.90
21255;DHT22;10785;50.674;17.954;2023-11-21T07:55:49;8.20;99.90
21255;DHT22;10785;50.674;17.954;2023-11-21T07:58:39;8.20;99.90
21255;DHT22;10785;50.674;17.954;2023-11-21T08:01:23;8.10;99.90
21255;DHT22;10785;50.674;17.954;2023-11-21T08:04:14;8.20;99.90
21255;DHT22;10785;50.674;17.954;2023-11-21T08:07:08;8.20;99.90
21255;DHT22;10785;50.674;17.954;2023-11-21T08:10:03;8.20;99.90
21255;DHT22;10785;50.674;17.954;2023-11-21T08:12:45;8.30;99.90
21255;DHT22;10785;50.674;17.954;2023-11-21T08:15:34;8.30;99.90
21255;DHT22;10785;50.674;17.954;2023-11-21T08:18:16;8.40;99.90
21255;DHT22;10785;50.674;17.954;2023-11-21T08:21:04;8.40;99.90
21255;DHT22;10785;50.674;17.954;2023-11-21T08:23:58;8.40;99.90
21255;DHT22;10785;50.674;17.954;2023-11-21T08:26:41;8.40;99.90
21255;DHT22;10785;50.674;17.954;2023-11-21T08:29:30;8.50;99.90
21255;DHT22;10785;50.674;17.954;2023-11-21T08:32:14;8.50;99.90
21255;DHT22;10785;50.674;17.954;2023-11-21T08:35:03;8.60;99.90
21255;DHT22;10785;50.674;17.954;2023-11-21T08:37:47;8.70;99.90
21255;DHT22;10785;50.674;17.954;2023-11-21T08:40:46;8.70;99.90
21255;DHT22;10785;50.674;17.954;2023-11-21T08:43:32;8.70;99.90
21255;DHT22;10785;50.674;17.954;2023-11-21T08:46:17;8.80;99.90
21255;DHT22;10785;50.674;17.954;2023-11-21T08:48:54;8.90;99.90
21255;DHT22;10785;50.674;17.954;2023-11-21T08:51:34;8.90;99.90
21255;DHT22;10785;50.674;17.954;2023-11-21T08:54:32;8.90;99.90
21255;DHT22;10785;50.674;17.954;2023-11-21T08:57:17;8.80;99.90
21255;DHT22;10785;50.674;17.954;2023-11-21T09:00:02;8.70;99.90
21255;DHT22;10785;50.674;17.954;2023-11-21T09:03:01;8.70;99.90
21255;DHT22;10785;50.674;17.954;2023-11-21T09:05:37;8.70;99.90
21255;DHT22;10785;50.674;17.954;2023-11-21T09:08:30;8.60;99.90
21255;DHT22;10785;50.674;17.954;2023-11-21T09:11:12;8.60;99.90
21255;DHT22;10785;50.674;17.954;2023-11-21T09:14:04;8.60;99.90
21255;DHT22;10785;50.674;17.954;2023-11-21T09:16:55;8.60;99.90
21255;DHT22;10785;50.674;17.954;2023-11-21T09:19:42;8.60;99.90
21255;DHT22;10785;50.674;17.954;2023-11-21T09:22:32;8.50;99.90
21255;DHT22;10785;50.674;17.954;2023-11-21T09:25:05;8.50;99.90
21255;DHT22;10785;50.674;17.954;2023-11-21T09:27:53;8.50;99.90
21255;DHT22;10785;50.674;17.954;2023-11-21T09:30:44;8.50;99.90
21255;DHT22;10785;50.674;17.954;2023-11-21T09:33:30;8.40;99.90
21255;DHT22;10785;50.674;17.954;2023-11-21T09:36:15;8.40;99.90
21255;DHT22;10785;50.674;17.954;2023-11-21T09:39:01;8.40;99.90
21255;DHT22;10785;50.674;17.954;2023-11-21T09:41:56;8.30;99.90
21255;DHT22;10785;50.674;17.954;2023-11-21T09:44:48;8.30;99.90
21255;DHT22;10785;50.674;17.954;2023-11-21T09:47:42;8.30;99.90
21255;DHT22;10785;50.674;17.954;2023-11-21T09:50:29;8.20;99.90
21255;DHT22;10785;50.674;17.954;2023-11-21T09:53:17;8.20;99.90
21255;DHT22;10785;50.674;17.954;2023-11-21T09:56:11;8.20;99.90
21255;DHT22;10785;50.674;17.954;2023-11-21T09:59:05;8.20;99.90
21255;DHT22;10785;50.674;17.954;2023-11-21T10:01:45;8.20;99.90
21255;DHT22;10785;50.674;17.954;2023-11-21T10:04:38;8.10;99.90
21255;DHT22;10785;50.674;17.954;2023-11-21T10:07:29;8.10;99.90
21255;DHT22;10785;50.674;17.954;2023-11-21T10:10:22;8.20;99.90
21255;DHT22;10785;50.674;17.954;2023-11-21T10:13:05;8.20;99.90
21255;DHT22;10785;50.674;17.954;2023-11-21T10:16:00;8.20;99.90
21255;DHT22;10785;50.674;17.954;2023-11-21T10:18:45;8.20;99.90
21255;DHT22;10785;50.674;17.954;2023-11-21T10:21:30;8.20;99.90
21255;DHT22;10785;50.674;17.954;2023-11-21T10:24:23;8.20;99.90
21255;DHT22;10785;50.674;17.954;2023-11-21T10:27:26;8.20;99.90
21255;DHT22;10785;50.674;17.954;2023-11-21T10:30:13;8.20;99.90
21255;DHT22;10785;50.674;17.954;2023-11-21T10:33:04;8.20;99.90
21255;DHT22;10785;50.674;17.954;2023-11-21T10:35:48;8.20;99.90
21255;DHT22;10785;50.674;17.954;2023-11-21T10:38:45;8.20;99.90
21255;DHT22;10785;50.674;17.954;2023-11-21T10:41:32;8.30;99.90
21255;DHT22;10785;50.674;17.954;2023-11-21T10:44:18;8.30;99.90
21255;DHT22;10785;50.674;17.954;2023-11-21T10:47:05;8.30;99.90
21255;DHT22;10785;50.674;17.954;2023-11-21T10:49:55;8.30;99.90
21255;DHT22;10785;50.674;17.954;2023-11-21T10:52:40;8.30;99.90
21255;DHT22;10785;50.674;17.954;2023-11-21T10:55:33;8.30;99.90
21255;DHT22;10785;50.674;17.954;2023-11-21T10:58:19;8.30;99.90
21255;DHT22;10785;50.674;17.954;2023-11-21T11:01:06;8.30;99.90
21255;DHT22;10785;50.674;17.954;2023-11-21T11:03:56;8.30;99.90
21255;DHT22;10785;50.674;17.954;2023-11-21T11:06:54;8.30;99.90
21255;DHT22;10785;50.674;17.954;2023-11-21T11:09:35;8.30;99.90
21255;DHT22;10785;50.674;17.954;2023-11-21T11:12:29;8.30;99.90
21255;DHT22;10785;50.674;17.954;2023-11-21T11:15:15;8.30;99.90
21255;DHT22;10785;50.674;17.954;2023-11-21T11:18:05;8.20;99.90
21255;DHT22;10785;50.674;17.954;2023-11-21T11:20:52;8.20;99.90
21255;DHT22;10785;50.674;17.954;2023-11-21T11:23:49;8.20;99.90
21255;DHT22;10785;50.674;17.954;2023-11-21T11:26:41;8.30;99.90
21255;DHT22;10785;50.674;17.954;2023-11-21T11:29:35;8.30;99.90
21255;DHT22;10785;50.674;17.954;2023-11-21T11:32:37;8.30;99.90
21255;DHT22;10785;50.674;17.954;2023-11-21T11:35:42;8.30;99.90
21255;DHT22;10785;50.674;17.954;2023-11-21T11:41:30;8.20;99.90
21255;DHT22;10785;50.674;17.954;2023-11-21T11:44:50;8.30;99.90
21255;DHT22;10785;50.674;17.954;2023-11-21T11:47:41;8.20;99.90
21255;DHT22;10785;50.674;17.954;2023-11-21T11:50:27;8.20;99.90
21255;DHT22;10785;50.674;17.954;2023-11-21T11:53:15;8.20;99.90
21255;DHT22;10785;50.674;17.954;2023-11-21T11:56:24;8.20;99.90
21255;DHT22;10785;50.674;17.954;2023-11-21T11:59:15;8.20;99.90
21255;DHT22;10785;50.674;17.954;2023-11-21T12:02:06;8.10;99.90
21255;DHT22;10785;50.674;17.954;2023-11-21T12:04:59;8.20;99.90
21255;DHT22;10785;50.674;17.954;2023-11-21T12:07:53;8.10;99.90
21255;DHT22;10785;50.674;17.954;2023-11-21T12:10:46;8.10;99.90
21255;DHT22;10785;50.674;17.954;2023-11-21T12:13:35;8.00;99.90
21255;DHT22;10785;50.674;17.954;2023-11-21T12:16:35;7.80;99.90
21255;DHT22;10785;50.674;17.954;2023-11-21T12:19:25;7.80;99.90
21255;DHT22;10785;50.674;17.954;2023-11-21T12:22:25;7.70;99.90
21255;DHT22;10785;50.674;17.954;2023-11-21T12:25:16;7.60;99.90
21255;DHT22;10785;50.674;17.954;2023-11-21T12:28:06;7.60;99.90
21255;DHT22;10785;50.674;17.954;2023-11-21T12:30:56;7.70;99.90
21255;DHT22;10785;50.674;17.954;2023-11-21T12:33:55;7.60;99.90
21255;DHT22;10785;50.674;17.954;2023-11-21T12:36:47;7.60;99.90
21255;DHT22;10785;50.674;17.954;2023-11-21T12:39:30;7.60;99.90
21255;DHT22;10785;50.674;17.954;2023-11-21T12:42:23;7.60;99.90
21255;DHT22;10785;50.674;17.954;2023-11-21T12:45:27;7.50;99.90
21255;DHT22;10785;50.674;17.954;2023-11-21T12:48:14;7.50;99.90
21255;DHT22;10785;50.674;17.954;2023-11-21T12:50:56;7.50;99.90
21255;DHT22;10785;50.674;17.954;2023-11-21T12:53:55;7.30;99.90
21255;DHT22;10785;50.674;17.954;2023-11-21T12:56:52;7.20;99.90
21255;DHT22;10785;50.674;17.954;2023-11-21T12:59:36;7.10;99.90
21255;DHT22;10785;50.674;17.954;2023-11-21T13:02:26;7.10;99.90
21255;DHT22;10785;50.674;17.954;2023-11-21T13:05:27;7.00;99.90
21255;DHT22;10785;50.674;17.954;2023-11-21T13:08:18;7.00;99.90
21255;DHT22;10785;50.674;17.954;2023-11-21T13:11:30;7.00;99.90
21255;DHT22;10785;50.674;17.954;2023-11-21T13:14:32;7.00;99.90
21255;DHT22;10785;50.674;17.954;2023-11-21T13:17:24;6.90;99.90
21255;DHT22;10785;50.674;17.954;2023-11-21T13:20:10;6.90;99.90
21255;DHT22;10785;50.674;17.954;2023-11-21T13:22:56;6.90;99.90
21255;DHT22;10785;50.674;17.954;2023-11-21T13:25:44;6.80;99.90
21255;DHT22;10785;50.674;17.954;2023-11-21T13:28:44;6.70;99.90
21255;DHT22;10785;50.674;17.954;2023-11-21T13:31:26;6.70;99.90
21255;DHT22;10785;50.674;17.954;2023-11-21T13:34:15;6.50;99.90
21255;DHT22;10785;50.674;17.954;2023-11-21T13:37:01;6.50;99.90
21255;DHT22;10785;50.674;17.954;2023-11-21T13:39:53;6.40;99.90
21255;DHT22;10785;50.674;17.954;2023-11-21T13:42:55;6.30;99.90
21255;DHT22;10785;50.674;17.954;2023-11-21T13:45:45;6.20;99.90
21255;DHT22;10785;50.674;17.954;2023-11-21T13:48:32;6.10;99.90
21255;DHT22;10785;50.674;17.954;2023-11-21T13:51:19;6.10;99.90
21255;DHT22;10785;50.674;17.954;2023-11-21T13:54:10;6.10;99.90
21255;DHT22;10785;50.674;17.954;2023-11-21T13:56:53;5.90;99.90
21255;DHT22;10785;50.674;17.954;2023-11-21T13:59:43;5.80;99.90
21255;DHT22;10785;50.674;17.954;2023-11-21T14:05:27;5.60;99.90
21255;DHT22;10785;50.674;17.954;2023-11-21T14:08:24;5.60;99.90
21255;DHT22;10785;50.674;17.954;2023-11-21T14:11:13;5.60;99.90
21255;DHT22;10785;50.674;17.954;2023-11-21T14:14:06;5.50;99.90
21255;DHT22;10785;50.674;17.954;2023-11-21T14:16:50;5.40;99.90
21255;DHT22;10785;50.674;17.954;2023-11-21T14:19:36;5.40;99.90
21255;DHT22;10785;50.674;17.954;2023-11-21T14:22:30;5.30;99.90
21255;DHT22;10785;50.674;17.954;2023-11-21T14:25:19;5.20;99.90
21255;DHT22;10785;50.674;17.954;2023-11-21T14:28:23;5.20;99.90
21255;DHT22;10785;50.674;17.954;2023-11-21T14:31:31;5.20;99.90
21255;DHT22;10785;50.674;17.954;2023-11-21T14:34:22;5.20;99.90
21255;DHT22;10785;50.674;17.954;2023-11-21T14:37:07;5.20;99.90
21255;DHT22;10785;50.674;17.954;2023-11-21T14:40:01;5.10;99.90
21255;DHT22;10785;50.674;17.954;2023-11-21T14:42:52;5.00;99.90
21255;DHT22;10785;50.674;17.954;2023-11-21T14:45:41;4.90;99.90
21255;DHT22;10785;50.674;17.954;2023-11-21T14:48:37;4.80;99.90
21255;DHT22;10785;50.674;17.954;2023-11-21T14:51:40;4.70;99.90
21255;DHT22;10785;50.674;17.954;2023-11-21T14:54:40;4.70;99.90
21255;DHT22;10785;50.674;17.954;2023-11-21T14:57:26;4.70;99.90
21255;DHT22;10785;50.674;17.954;2023-11-21T14:59:59;4.60;99.90
21255;DHT22;10785;50.674;17.954;2023-11-21T15:02:51;4.60;99.90
21255;DHT22;10785;50.674;17.954;2023-11-21T15:05:21;4.60;99.90
21255;DHT22;10785;50.674;17.954;2023-11-21T15:07:52;4.60;99.90
21255;DHT22;10785;50.674;17.954;2023-11-21T15:10:24;4.60;99.90
21255;DHT22;10785;50.674;17.954;2023-11-21T15:16:16;4.60;99.90
21255;DHT22;10785;50.674;17.954;2023-11-21T15:18:46;4.60;99.90
21255;DHT22;10785;50.674;17.954;2023-11-21T15:21:15;4.50;99.90
21255;DHT22;10785;50.674;17.954;2023-11-21T15:23:45;4.40;99.90
21255;DHT22;10785;50.674;17.954;2023-11-21T15:26:14;4.40;99.90
21255;DHT22;10785;50.674;17.954;2023-11-21T15:28:45;4.30;99.90
21255;DHT22;10785;50.674;17.954;2023-11-21T15:31:14;4.30;99.90
21255;DHT22;10785;50.674;17.954;2023-11-21T15:33:44;4.20;99.90
21255;DHT22;10785;50.674;17.954;2023-11-21T15:36:13;4.10;99.90
21255;DHT22;10785;50.674;17.954;2023-11-21T15:38:42;3.90;99.90
21255;DHT22;10785;50.674;17.954;2023-11-21T15:41:12;3.80;99.90
21255;DHT22;10785;50.674;17.954;2023-11-21T15:43:41;3.70;99.90
21255;DHT22;10785;50.674;17.954;2023-11-21T15:46:12;3.70;99.90
21255;DHT22;10785;50.674;17.954;2023-11-21T15:48:41;3.70;99.90
21255;DHT22;10785;50.674;17.954;2023-11-21T15:51:17;3.60;99.90
21255;DHT22;10785;50.674;17.954;2023-11-21T15:53:46;3.70;99.90
21255;DHT22;10785;50.674;17.954;2023-11-21T15:56:15;3.60;99.90
21255;DHT22;10785;50.674;17.954;2023-11-21T15:58:45;3.60;99.90
21255;DHT22;10785;50.674;17.954;2023-11-21T16:01:19;3.50;99.90
21255;DHT22;10785;50.674;17.954;2023-11-21T16:03:49;3.50;99.90
21255;DHT22;10785;50.674;17.954;2023-11-21T16:06:21;3.50;99.90
21255;DHT22;10785;50.674;17.954;2023-11-21T16:08:50;3.50;99.90
21255;DHT22;10785;50.674;17.954;2023-11-21T16:11:20;3.40;99.90
21255;DHT22;10785;50.674;17.954;2023-11-21T16:13:51;3.40;99.90
21255;DHT22;10785;50.674;17.954;2023-11-21T16:16:22;3.30;99.90
21255;DHT22;10785;50.674;17.954;2023-11-21T16:18:52;3.30;99.90
21255;DHT22;10785;50.674;17.954;2023-11-21T16:21:21;3.30;99.90
21255;DHT22;10785;50.674;17.954;2023-11-21T16:23:51;3.20;99.90
21255;DHT22;10785;50.674;17.954;2023-11-21T16:26:22;3.20;99.90
21255;DHT22;10785;50.674;17.954;2023-11-21T16:28:53;3.10;99.90
21255;DHT22;10785;50.674;17.954;2023-11-21T16:31:25;3.10;99.90
21255;DHT22;10785;50.674;17.954;2023-11-21T16:34:11;3.00;99.90
21255;DHT22;10785;50.674;17.954;2023-11-21T16:36:49;3.00;99.90
21255;DHT22;10785;50.674;17.954;2023-11-21T16:39:19;2.90;99.90
21255;DHT22;10785;50.674;17.954;2023-11-21T16:41:54;2.90;99.90
21255;DHT22;10785;50.674;17.954;2023-11-21T16:44:30;2.80;99.90
21255;DHT22;10785;50.674;17.954;2023-11-21T16:47:03;2.90;99.90
21255;DHT22;10785;50.674;17.954;2023-11-21T16:49:34;2.80;99.90
21255;DHT22;10785;50.674;17.954;2023-11-21T16:52:06;2.90;99.90
21255;DHT22;10785;50.674;17.954;2023-11-21T16:54:43;2.90;99.90
21255;DHT22;10785;50.674;17.954;2023-11-21T16:57:13;2.90;99.90
21255;DHT22;10785;50.674;17.954;2023-11-21T16:59:47;2.90;99.90
21255;DHT22;10785;50.674;17.954;2023-11-21T17:02:33;2.90;99.90
21255;DHT22;10785;50.674;17.954;2023-11-21T17:05:05;2.80;99.90
21255;DHT22;10785;50.674;17.954;2023-11-21T17:07:35;2.80;99.90
21255;DHT22;10785;50.674;17.954;2023-11-21T17:10:06;2.70;99.90
21255;DHT22;10785;50.674;17.954;2023-11-21T17:12:37;2.60;99.90
21255;DHT22;10785;50.674;17.954;2023-11-21T17:15:07;2.50;99.90
21255;DHT22;10785;50.674;17.954;2023-11-21T17:17:45;2.50;99.90
21255;DHT22;10785;50.674;17.954;2023-11-21T17:20:14;2.60;99.90
21255;DHT22;10785;50.674;17.954;2023-11-21T17:22:44;2.50;99.90
21255;DHT22;10785;50.674;17.954;2023-11-21T17:25:13;2.50;99.90
21255;DHT22;10785;50.674;17.954;2023-11-21T17:27:42;2.50;99.90